Time;durP1;ratioP1;P1;durP2;ratioP2;P2;SDS_P1;SDS_P2;PMS_P1;PMS_P2;Temp;Humidity;BMP_temperature;BMP_pressure;BME280_temperature;BME280_humidity;BME280_pressure;Samples;Min_cycle;Max_cycle;Signal;HPM_P1;HPM_P2
2023/07/02 00:00:38;;;;;;;2.13;1.92;;;21.90;62.10;;;;;;5052405;28;20213;-64
2023/07/02 00:03:03;;;;;;;2.15;1.70;;;21.90;61.40;;;;;;5052372;28;20203;-64
2023/07/02 00:05:29;;;;;;;1.88;1.77;;;22.00;62.30;;;;;;5052684;28;20625;-63
2023/07/02 00:07:55;;;;;;;3.00;1.70;;;22.00;61.40;;;;;;5051823;28;20592;-63
2023/07/02 00:10:20;;;;;;;2.85;1.55;;;21.90;61.40;;;;;;5052124;28;20171;-63
2023/07/02 00:12:46;;;;;;;3.15;1.77;;;21.90;61.40;;;;;;5052689;28;20179;-62
2023/07/02 00:15:11;;;;;;;3.03;1.75;;;21.90;61.40;;;;;;5051832;28;20171;-63
2023/07/02 00:17:39;;;;;;;2.35;2.00;;;21.90;62.20;;;;;;5052777;28;20175;-63
2023/07/02 00:20:14;;;;;;;1.67;1.58;;;21.90;61.40;;;;;;5052422;28;20210;-63
2023/07/02 00:22:44;;;;;;;2.85;1.67;;;21.90;61.40;;;;;;5051953;28;20201;-63
2023/07/02 00:25:10;;;;;;;1.92;1.67;;;21.90;61.40;;;;;;5052065;28;20214;-62
2023/07/02 00:27:37;;;;;;;3.47;1.65;;;21.90;61.50;;;;;;5052518;28;20175;-63
2023/07/02 00:30:03;;;;;;;2.70;1.90;;;21.90;61.40;;;;;;5051537;28;20175;-63
2023/07/02 00:32:28;;;;;;;1.83;1.70;;;21.90;61.40;;;;;;5052621;28;20193;-64
2023/07/02 00:34:54;;;;;;;1.70;1.60;;;21.90;61.40;;;;;;5052547;28;20179;-64
2023/07/02 00:37:19;;;;;;;2.08;1.55;;;21.90;61.40;;;;;;5051406;28;20218;-64
2023/07/02 00:39:45;;;;;;;2.35;1.70;;;21.90;61.50;;;;;;5052153;28;20276;-63
2023/07/02 00:42:11;;;;;;;2.15;1.95;;;21.90;61.50;;;;;;5052367;28;20175;-63
2023/07/02 00:44:40;;;;;;;3.65;1.80;;;21.80;61.30;;;;;;5051767;28;20265;-63
2023/07/02 00:47:09;;;;;;;2.63;1.83;;;21.90;61.40;;;;;;5051852;28;20631;-63
2023/07/02 00:49:35;;;;;;;6.22;2.35;;;21.90;62.30;;;;;;5050630;28;20175;-62
2023/07/02 00:52:00;;;;;;;2.95;2.10;;;21.80;61.30;;;;;;5051868;28;20228;-62
2023/07/02 00:54:29;;;;;;;2.40;2.20;;;21.80;61.40;;;;;;5051151;28;20179;-62
2023/07/02 00:56:55;;;;;;;2.28;2.08;;;21.90;61.50;;;;;;5050816;28;20245;-63
2023/07/02 00:59:20;;;;;;;4.80;2.20;;;21.80;61.60;;;;;;5051014;28;20522;-63
2023/07/02 01:01:49;;;;;;;3.13;2.00;;;21.80;61.50;;;;;;5051383;28;20586;-63
2023/07/02 01:04:16;;;;;;;2.72;2.28;;;21.80;61.50;;;;;;5051349;28;20175;-63
2023/07/02 01:06:42;;;;;;;2.70;2.50;;;21.80;61.70;;;;;;5051075;28;20209;-63
2023/07/02 01:09:08;;;;;;;4.90;2.75;;;21.80;61.60;;;;;;5051895;28;20187;-63
2023/07/02 01:11:53;;;;;;;3.05;1.98;;;21.80;61.60;;;;;;5051454;28;20638;-62
2023/07/02 01:14:32;;;;;;;3.17;2.72;;;21.80;61.70;;;;;;5050712;28;20182;-62
2023/07/02 01:16:57;;;;;;;6.50;3.00;;;21.80;61.60;;;;;;5050988;28;20210;-63
2023/07/02 01:19:51;;;;;;;2.40;2.22;;;21.80;61.60;;;;;;5050000;28;20254;-63
2023/07/02 01:22:20;;;;;;;3.30;2.50;;;21.80;61.70;;;;;;5055544;28;20647;-62
2023/07/02 01:24:48;;;;;;;3.80;2.58;;;21.80;61.60;;;;;;5053867;28;20661;-62
2023/07/02 01:27:15;;;;;;;3.20;2.40;;;21.80;61.60;;;;;;5054250;28;20175;-62
2023/07/02 01:29:40;;;;;;;3.45;2.75;;;21.80;61.60;;;;;;5055573;28;20186;-62
2023/07/02 01:32:06;;;;;;;4.28;2.80;;;21.80;61.60;;;;;;5054808;28;20262;-63
2023/07/02 01:34:32;;;;;;;4.55;3.08;;;21.80;61.60;;;;;;5055396;28;20541;-64
2023/07/02 01:36:57;;;;;;;3.78;2.70;;;21.80;61.60;;;;;;5055119;28;20261;-64
2023/07/02 01:39:23;;;;;;;5.25;2.92;;;21.80;61.60;;;;;;5054728;28;20587;-63
2023/07/02 01:41:52;;;;;;;4.80;2.88;;;21.80;61.60;;;;;;5055837;28;20171;-63
2023/07/02 01:44:18;;;;;;;2.90;2.60;;;21.80;61.60;;;;;;5054992;28;20175;-63
2023/07/02 01:46:44;;;;;;;4.53;3.20;;;21.70;61.50;;;;;;5054444;28;20232;-62
2023/07/02 01:49:10;;;;;;;2.85;2.60;;;21.70;61.60;;;;;;5054984;28;20191;-62
2023/07/02 01:51:36;;;;;;;3.85;3.00;;;21.70;61.50;;;;;;5055129;28;20167;-62
2023/07/02 01:54:01;;;;;;;5.05;3.08;;;21.70;62.30;;;;;;5054070;28;20179;-62
2023/07/02 01:56:27;;;;;;;3.20;2.65;;;21.70;61.60;;;;;;5055087;28;20557;-63
2023/07/02 01:58:53;;;;;;;3.70;2.88;;;21.70;61.50;;;;;;5055000;28;20507;-62
2023/07/02 02:01:19;;;;;;;3.65;2.83;;;21.70;61.60;;;;;;5054303;28;20312;-64
2023/07/02 02:03:44;;;;;;;5.70;2.95;;;21.70;62.40;;;;;;5055261;28;20246;-64
2023/07/02 02:06:10;;;;;;;4.72;2.78;;;21.70;62.40;;;;;;5054676;28;20220;-63
2023/07/02 02:08:35;;;;;;;4.93;3.47;;;21.70;61.50;;;;;;5054404;28;20175;-63
2023/07/02 02:11:01;;;;;;;4.55;3.10;;;21.70;61.40;;;;;;5054165;28;20701;-62
2023/07/02 02:13:26;;;;;;;5.60;3.38;;;21.70;61.40;;;;;;5053035;28;20171;-62
2023/07/02 02:15:53;;;;;;;5.07;3.42;;;21.70;61.50;;;;;;5053191;28;20214;-63
2023/07/02 02:18:18;;;;;;;3.47;3.17;;;21.70;61.40;;;;;;5054406;28;20630;-62
2023/07/02 02:20:44;;;;;;;4.78;3.65;;;21.70;61.40;;;;;;5054888;28;20258;-62
2023/07/02 02:23:09;;;;;;;3.45;3.15;;;21.70;61.40;;;;;;5053170;28;20182;-62
2023/07/02 02:25:35;;;;;;;4.97;3.35;;;21.70;62.30;;;;;;5054606;28;20268;-62
2023/07/02 02:28:00;;;;;;;3.45;2.97;;;21.70;61.40;;;;;;5053527;28;20171;-63
2023/07/02 02:30:26;;;;;;;3.65;3.03;;;21.70;61.40;;;;;;5054428;28;20917;-63
2023/07/02 02:32:52;;;;;;;4.80;3.17;;;21.70;61.30;;;;;;5053217;28;20175;-64
2023/07/02 02:35:17;;;;;;;5.07;3.75;;;21.60;61.30;;;;;;5053552;28;20712;-64
2023/07/02 02:37:43;;;;;;;6.35;4.30;;;21.70;61.30;;;;;;5054255;28;20622;-64
2023/07/02 02:40:11;;;;;;;4.38;3.20;;;21.70;61.40;;;;;;5053903;28;20590;-63
2023/07/02 02:42:38;;;;;;;3.92;3.50;;;21.60;61.30;;;;;;5053089;28;20265;-63
2023/07/02 02:45:04;;;;;;;3.97;3.58;;;21.60;61.30;;;;;;5053700;28;20175;-63
2023/07/02 02:47:29;;;;;;;4.60;3.53;;;21.60;61.30;;;;;;5053528;28;20178;-62
2023/07/02 02:49:55;;;;;;;4.88;3.40;;;21.60;61.30;;;;;;5053221;28;20181;-62
2023/07/02 02:52:20;;;;;;;4.50;3.30;;;21.60;62.20;;;;;;5053577;28;20261;-62
2023/07/02 02:54:46;;;;;;;5.32;3.75;;;21.60;61.40;;;;;;5054043;28;20175;-62
2023/07/02 02:57:12;;;;;;;4.60;3.70;;;21.60;61.20;;;;;;5052350;28;20203;-63
2023/07/02 02:59:37;;;;;;;4.53;3.40;;;21.60;61.30;;;;;;5053567;28;20613;-64
2023/07/02 03:02:03;;;;;;;5.55;3.90;;;21.60;61.50;;;;;;5053363;28;20225;-64
2023/07/02 03:04:29;;;;;;;4.55;3.75;;;21.60;61.50;;;;;;5053068;28;20634;-63
2023/07/02 03:06:55;;;;;;;4.25;3.65;;;21.60;61.40;;;;;;5054039;28;20213;-63
2023/07/02 03:09:21;;;;;;;4.63;3.92;;;21.60;61.40;;;;;;5053858;28;20183;-63
2023/07/02 03:11:47;;;;;;;4.38;3.97;;;21.60;61.40;;;;;;5052737;28;20642;-62
2023/07/02 03:14:13;;;;;;;5.32;3.55;;;21.60;61.30;;;;;;5052945;28;20184;-62
2023/07/02 03:16:39;;;;;;;5.13;3.92;;;21.60;62.20;;;;;;5053679;28;20241;-62
2023/07/02 03:19:04;;;;;;;4.82;3.88;;;21.60;61.30;;;;;;5052579;28;20635;-62
2023/07/02 03:21:30;;;;;;;4.50;3.60;;;21.60;61.40;;;;;;5053231;28;20178;-63
2023/07/02 03:23:55;;;;;;;4.43;3.78;;;21.50;61.20;;;;;;5053085;28;20721;-62
2023/07/02 03:26:22;;;;;;;4.78;3.70;;;21.60;61.40;;;;;;5052665;28;20593;-62
2023/07/02 03:28:48;;;;;;;4.22;3.83;;;21.50;61.40;;;;;;5053541;28;20202;-62
2023/07/02 03:31:14;;;;;;;5.53;3.88;;;21.50;61.40;;;;;;5052566;28;20202;-63
2023/07/02 03:33:40;;;;;;;4.40;3.83;;;21.60;61.40;;;;;;5052947;28;20182;-63
2023/07/02 03:36:06;;;;;;;5.82;3.72;;;21.60;61.40;;;;;;5053044;28;20214;-63
2023/07/02 03:38:32;;;;;;;4.80;3.83;;;21.50;62.10;;;;;;5052372;28;20585;-63
2023/07/02 03:40:57;;;;;;;4.88;4.38;;;21.60;61.40;;;;;;5052652;28;20238;-62
2023/07/02 03:43:24;;;;;;;6.38;4.43;;;21.60;61.30;;;;;;5052678;28;20179;-63
2023/07/02 03:45:51;;;;;;;4.30;3.58;;;21.50;61.20;;;;;;5052495;28;20179;-63
2023/07/02 03:48:16;;;;;;;4.68;4.18;;;21.50;61.30;;;;;;5052918;28;20187;-62
2023/07/02 03:50:42;;;;;;;6.07;4.45;;;21.50;61.20;;;;;;5053126;28;20512;-61
2023/07/02 03:53:07;;;;;;;5.13;4.20;;;21.50;61.30;;;;;;5051697;28;20214;-62
2023/07/02 03:55:33;;;;;;;5.53;4.60;;;21.50;61.20;;;;;;5052749;28;20605;-62
2023/07/02 03:57:58;;;;;;;5.75;4.20;;;21.50;61.20;;;;;;5052542;28;20274;-62
2023/07/02 04:00:24;;;;;;;5.63;4.60;;;21.50;61.20;;;;;;5052318;28;20199;-63
2023/07/02 04:02:49;;;;;;;6.07;4.50;;;21.50;61.10;;;;;;5052790;28;20650;-63
2023/07/02 04:05:16;;;;;;;4.68;4.18;;;21.50;61.10;;;;;;5052530;28;20551;-63
2023/07/02 04:07:41;;;;;;;5.95;4.45;;;21.50;61.10;;;;;;5051834;28;20186;-63
2023/07/02 04:10:07;;;;;;;5.90;4.18;;;21.50;61.90;;;;;;5052411;28;20175;-62
2023/07/02 04:12:33;;;;;;;4.72;3.83;;;21.50;61.00;;;;;;5052307;28;20268;-62
2023/07/02 04:14:58;;;;;;;5.95;3.90;;;21.50;61.00;;;;;;5051692;28;20202;-63
2023/07/02 04:17:24;;;;;;;5.35;4.00;;;21.50;61.10;;;;;;5052764;28;20215;-63
2023/07/02 04:19:49;;;;;;;5.88;4.13;;;21.50;60.90;;;;;;5052681;28;20312;-62
2023/07/02 04:22:15;;;;;;;6.50;4.32;;;21.50;61.00;;;;;;5051361;28;20274;-62
2023/07/02 04:24:41;;;;;;;6.28;3.88;;;21.50;60.90;;;;;;5052511;28;20175;-62
2023/07/02 04:27:06;;;;;;;5.75;4.05;;;21.50;60.90;;;;;;5052255;28;20168;-63
2023/07/02 04:29:32;;;;;;;6.65;4.80;;;21.50;60.90;;;;;;5052025;28;20177;-63
2023/07/02 04:31:57;;;;;;;5.32;4.22;;;21.60;60.90;;;;;;5051931;28;20742;-65
2023/07/02 04:34:23;;;;;;;7.65;4.57;;;21.50;60.80;;;;;;5051811;28;20587;-64
2023/07/02 04:36:48;;;;;;;6.72;4.80;;;21.60;60.80;;;;;;5052032;28;20571;-64
2023/07/02 04:39:14;;;;;;;6.68;4.45;;;21.50;60.70;;;;;;5052173;28;20574;-64
2023/07/02 04:41:39;;;;;;;6.28;4.85;;;21.50;60.70;;;;;;5051446;28;20175;-63
2023/07/02 04:44:05;;;;;;;6.50;4.13;;;21.50;60.70;;;;;;5052310;28;20171;-64
2023/07/02 04:46:30;;;;;;;7.32;4.35;;;21.50;60.70;;;;;;5052570;28;20217;-63
2023/07/02 04:48:56;;;;;;;5.63;4.88;;;21.60;60.70;;;;;;5051491;28;20641;-63
2023/07/02 04:51:23;;;;;;;5.88;3.90;;;21.50;60.60;;;;;;5051951;28;20641;-63
2023/07/02 04:53:48;;;;;;;5.22;4.40;;;21.50;60.50;;;;;;5051981;28;20275;-63
2023/07/02 04:56:14;;;;;;;6.68;4.22;;;21.60;60.60;;;;;;5053886;28;20305;-63
2023/07/02 04:58:39;;;;;;;6.43;4.30;;;21.60;60.50;;;;;;5056420;28;20199;-64
2023/07/02 05:01:05;;;;;;;5.70;4.70;;;21.60;60.50;;;;;;5056134;28;20638;-65
2023/07/02 05:03:30;;;;;;;5.53;4.53;;;21.50;60.50;;;;;;5055033;28;20630;-65
2023/07/02 05:05:56;;;;;;;5.90;4.22;;;21.60;60.50;;;;;;5055884;28;20550;-64
2023/07/02 05:08:22;;;;;;;6.45;5.30;;;21.60;60.60;;;;;;5056135;28;20221;-64
2023/07/02 05:10:47;;;;;;;5.65;4.50;;;21.60;60.50;;;;;;5055285;28;20175;-63
2023/07/02 05:13:13;;;;;;;7.15;4.63;;;21.60;60.50;;;;;;5055663;28;20642;-64
2023/07/02 05:15:38;;;;;;;6.60;4.65;;;21.60;60.50;;;;;;5056011;28;20183;-64
2023/07/02 05:18:06;;;;;;;5.07;4.47;;;21.60;60.40;;;;;;5055149;28;20548;-64
2023/07/02 05:20:32;;;;;;;5.53;4.68;;;21.60;60.50;;;;;;5056061;28;20179;-64
2023/07/02 05:22:57;;;;;;;5.90;4.68;;;21.60;60.50;;;;;;5054656;28;20179;-64
2023/07/02 05:25:23;;;;;;;5.70;4.80;;;21.70;60.60;;;;;;5055019;28;20221;-63
2023/07/02 05:27:49;;;;;;;6.75;4.93;;;21.60;60.40;;;;;;5055870;28;20179;-63
2023/07/02 05:30:14;;;;;;;6.53;4.97;;;21.60;60.60;;;;;;5055505;28;20202;-64
2023/07/02 05:32:40;;;;;;;10.55;5.35;;;21.60;60.50;;;;;;5054509;28;20179;-65
2023/07/02 05:35:05;;;;;;;7.20;4.90;;;21.60;60.40;;;;;;5055374;28;20614;-65
2023/07/02 05:37:31;;;;;;;6.28;4.65;;;21.60;60.50;;;;;;5055355;28;20298;-65
2023/07/02 05:39:56;;;;;;;6.00;4.97;;;21.60;60.50;;;;;;5054236;28;20230;-64
2023/07/02 05:42:22;;;;;;;6.95;5.25;;;21.60;60.60;;;;;;5055384;28;20273;-64
2023/07/02 05:44:48;;;;;;;6.40;4.63;;;21.60;60.50;;;;;;5054599;28;20175;-64
2023/07/02 05:47:13;;;;;;;6.30;4.70;;;21.60;60.50;;;;;;5055140;28;20175;-64
2023/07/02 05:49:40;;;;;;;7.82;5.30;;;21.70;60.50;;;;;;5055275;28;20226;-63
2023/07/02 05:52:06;;;;;;;7.20;4.97;;;21.60;60.50;;;;;;5052695;28;20175;-63
2023/07/02 05:54:31;;;;;;;6.75;5.15;;;21.60;60.50;;;;;;5055336;28;20518;-63
2023/07/02 05:56:57;;;;;;;8.77;5.05;;;21.60;61.30;;;;;;5054761;28;20207;-64
2023/07/02 05:59:22;;;;;;;8.88;4.93;;;21.60;60.60;;;;;;5054258;28;20175;-65
2023/07/02 06:01:48;;;;;;;7.03;5.25;;;21.60;60.60;;;;;;5054754;28;20187;-65
2023/07/02 06:04:14;;;;;;;6.47;5.10;;;21.60;60.60;;;;;;5054586;28;20538;-65
2023/07/02 06:06:39;;;;;;;7.03;5.30;;;21.70;60.60;;;;;;5052876;28;20179;-63
2023/07/02 06:09:05;;;;;;;6.30;4.85;;;21.60;60.70;;;;;;5054605;28;20167;-63
2023/07/02 06:11:30;;;;;;;7.35;5.40;;;21.60;61.40;;;;;;5054865;28;20262;-64
2023/07/02 06:13:56;;;;;;;7.22;5.28;;;21.70;60.60;;;;;;5053772;28;20175;-64
2023/07/02 06:16:21;;;;;;;8.45;5.93;;;21.70;60.40;;;;;;5054555;28;20206;-64
2023/07/02 06:18:47;;;;;;;9.20;5.43;;;21.70;60.30;;;;;;5054729;28;20171;-64
2023/07/02 06:21:12;;;;;;;7.85;5.68;;;21.70;60.30;;;;;;5053373;28;20224;-64
2023/07/02 06:23:44;;;;;;;8.27;5.68;;;21.70;60.30;;;;;;5054617;28;20179;-64
2023/07/02 06:26:09;;;;;;;9.32;6.32;;;21.70;60.30;;;;;;5054531;28;20186;-64
2023/07/02 06:28:35;;;;;;;7.13;5.40;;;21.70;60.20;;;;;;5053545;28;20171;-63
2023/07/02 06:31:01;;;;;;;8.43;5.70;;;21.70;60.20;;;;;;5053678;28;20273;-66
2023/07/02 06:33:26;;;;;;;5.53;5.03;;;21.70;60.10;;;;;;5054485;28;20561;-65
2023/07/02 06:35:52;;;;;;;7.53;5.13;;;21.70;60.30;;;;;;5053511;28;20213;-64
2023/07/02 06:38:17;;;;;;;10.55;5.78;;;21.70;60.20;;;;;;5054248;28;20261;-64
2023/07/02 06:40:43;;;;;;;7.85;5.25;;;21.70;61.10;;;;;;5053874;28;20214;-63
2023/07/02 06:43:08;;;;;;;6.90;5.30;;;21.70;60.20;;;;;;5053416;28;20175;-64
2023/07/02 06:45:34;;;;;;;7.35;5.18;;;21.70;59.90;;;;;;5054058;28;20175;-64
2023/07/02 06:48:00;;;;;;;9.70;5.28;;;21.70;60.10;;;;;;5053716;28;20618;-63
2023/07/02 06:50:25;;;;;;;8.55;5.32;;;21.70;60.00;;;;;;5052993;28;20183;-62
2023/07/02 06:52:51;;;;;;;7.95;5.95;;;21.80;60.10;;;;;;5054006;28;20171;-62
2023/07/02 06:55:16;;;;;;;7.30;5.10;;;21.70;59.90;;;;;;5053138;28;20189;-63
2023/07/02 06:57:45;;;;;;;9.75;6.15;;;21.80;59.90;;;;;;5053975;28;20203;-64
2023/07/02 07:00:12;;;;;;;9.48;5.97;;;21.80;59.70;;;;;;5053077;28;20250;-65
2023/07/02 07:02:38;;;;;;;8.63;5.80;;;21.80;59.70;;;;;;5053226;28;20175;-64
2023/07/02 07:05:04;;;;;;;11.05;6.43;;;21.80;59.60;;;;;;5053331;28;20536;-64
2023/07/02 07:07:29;;;;;;;8.50;5.68;;;21.80;59.60;;;;;;5053741;28;20179;-63
2023/07/02 07:09:55;;;;;;;9.27;5.45;;;21.80;59.50;;;;;;5052649;28;20218;-63
2023/07/02 07:12:21;;;;;;;9.57;5.95;;;21.80;59.40;;;;;;5053324;28;20179;-63
2023/07/02 07:14:46;;;;;;;7.80;5.18;;;21.80;59.40;;;;;;5053778;28;20570;-63
2023/07/02 07:17:15;;;;;;;7.63;5.25;;;21.90;59.40;;;;;;5052510;28;20211;-63
2023/07/02 07:19:40;;;;;;;7.22;5.18;;;21.80;59.40;;;;;;5052664;28;20179;-64
2023/07/02 07:22:06;;;;;;;8.52;6.15;;;21.90;59.20;;;;;;5052717;28;20217;-64
2023/07/02 07:24:31;;;;;;;8.27;5.70;;;21.90;59.30;;;;;;5052640;28;20183;-64
2023/07/02 07:26:57;;;;;;;7.97;5.72;;;21.90;59.30;;;;;;5053312;28;20172;-64
2023/07/02 07:29:22;;;;;;;9.57;6.18;;;21.80;59.20;;;;;;5053328;28;20658;-63
2023/07/02 07:31:48;;;;;;;7.28;5.68;;;21.80;59.30;;;;;;5052428;28;20709;-64
2023/07/02 07:34:13;;;;;;;8.18;6.00;;;21.80;59.20;;;;;;5053032;28;20183;-65
2023/07/02 07:36:39;;;;;;;8.40;5.47;;;21.80;59.10;;;;;;5052851;28;20666;-67
2023/07/02 07:39:05;;;;;;;8.25;5.60;;;21.90;59.70;;;;;;5052053;28;20559;-66
2023/07/02 07:41:30;;;;;;;10.88;5.63;;;21.90;59.00;;;;;;5053060;28;20274;-66
2023/07/02 07:43:56;;;;;;;6.80;5.35;;;21.90;59.10;;;;;;5052764;28;20178;-66
2023/07/02 07:46:21;;;;;;;9.00;6.40;;;21.90;59.10;;;;;;5052207;28;20175;-65
2023/07/02 07:48:47;;;;;;;8.88;6.15;;;21.90;58.90;;;;;;5052990;28;20217;-64
2023/07/02 07:51:12;;;;;;;8.30;5.55;;;21.90;59.00;;;;;;5052096;28;20197;-65
2023/07/02 07:53:39;;;;;;;10.98;6.05;;;21.90;59.00;;;;;;5052498;28;20171;-62
2023/07/02 07:56:05;;;;;;;7.90;5.32;;;22.00;59.00;;;;;;5052223;28;20195;-65
2023/07/02 07:58:31;;;;;;;9.32;6.00;;;22.00;58.80;;;;;;5052306;28;20229;-65
2023/07/02 08:00:57;;;;;;;8.45;5.22;;;22.00;58.90;;;;;;5052646;28;20171;-65
2023/07/02 08:03:23;;;;;;;8.73;5.63;;;22.00;59.50;;;;;;5052849;28;20179;-65
2023/07/02 08:05:48;;;;;;;8.85;5.88;;;22.00;58.90;;;;;;5051887;28;20179;-64
2023/07/02 08:08:14;;;;;;;10.45;6.32;;;22.00;58.80;;;;;;5052650;28;20213;-64
2023/07/02 08:10:39;;;;;;;9.55;6.32;;;22.10;58.70;;;;;;5052844;28;20171;-63
2023/07/02 08:13:05;;;;;;;9.10;5.68;;;22.10;58.70;;;;;;5051838;28;20225;-63
2023/07/02 08:15:30;;;;;;;10.15;5.43;;;22.10;58.60;;;;;;5052592;28;20175;-64
2023/07/02 08:17:58;;;;;;;6.82;5.22;;;22.20;58.60;;;;;;5051865;28;20274;-63
2023/07/02 08:20:24;;;;;;;8.05;5.40;;;22.20;58.50;;;;;;5051752;28;20725;-64
2023/07/02 08:22:51;;;;;;;5.88;4.97;;;22.20;58.40;;;;;;5052834;28;20262;-63
2023/07/02 08:25:17;;;;;;;8.63;5.30;;;22.20;58.30;;;;;;5052561;28;20185;-63
2023/07/02 08:27:43;;;;;;;8.13;5.53;;;22.30;58.30;;;;;;5051454;28;20183;-64
2023/07/02 08:30:09;;;;;;;8.75;5.78;;;22.30;58.20;;;;;;5053151;28;20187;-64
2023/07/02 08:32:34;;;;;;;8.27;5.60;;;22.30;58.10;;;;;;5056614;28;20175;-65
2023/07/02 08:35:00;;;;;;;8.48;5.65;;;22.30;58.20;;;;;;5055718;28;20523;-67
2023/07/02 08:37:25;;;;;;;6.47;4.93;;;22.30;58.20;;;;;;5056352;28;20214;-65
2023/07/02 08:39:51;;;;;;;7.90;5.00;;;22.30;58.00;;;;;;5056488;28;20226;-65
2023/07/02 08:42:16;;;;;;;6.60;5.32;;;22.40;58.00;;;;;;5055708;28;20186;-65
2023/07/02 08:44:45;;;;;;;7.57;4.80;;;22.40;57.90;;;;;;5056426;28;20167;-64
2023/07/02 08:47:10;;;;;;;8.80;5.40;;;22.40;57.90;;;;;;5055759;28;20194;-64
2023/07/02 08:49:36;;;;;;;8.27;5.45;;;22.30;57.90;;;;;;5055592;28;20178;-63
2023/07/02 08:52:02;;;;;;;7.93;4.85;;;22.30;58.10;;;;;;5056110;28;20206;-63
2023/07/02 08:54:27;;;;;;;8.25;5.38;;;22.20;58.10;;;;;;5056268;28;20237;-63
2023/07/02 08:56:53;;;;;;;7.80;5.30;;;22.30;58.10;;;;;;5054973;28;20270;-64
2023/07/02 08:59:18;;;;;;;7.82;4.80;;;22.30;58.00;;;;;;5056039;28;20645;-65
2023/07/02 09:01:51;;;;;;;7.60;4.72;;;22.40;57.90;;;;;;5055236;28;20179;-65
2023/07/02 09:04:24;;;;;;;9.00;5.00;;;22.40;57.70;;;;;;5055780;28;20183;-65
2023/07/02 09:07:06;;;;;;;6.53;4.60;;;22.50;57.60;;;;;;5055794;28;20523;-65
2023/07/02 09:09:31;;;;;;;7.28;5.05;;;22.50;57.50;;;;;;5054555;28;20185;-64
2023/07/02 09:11:59;;;;;;;10.75;6.25;;;22.40;58.20;;;;;;5055522;28;20270;-64
2023/07/02 09:14:29;;;;;;;6.63;4.65;;;22.40;57.70;;;;;;5055879;28;20257;-63
2023/07/02 09:17:11;;;;;;;9.75;5.20;;;22.30;57.70;;;;;;5055344;28;20223;-65
2023/07/02 09:19:37;;;;;;;7.95;5.18;;;22.30;57.80;;;;;;5056104;28;20254;-64
2023/07/02 09:22:02;;;;;;;7.85;5.10;;;22.30;57.80;;;;;;5054262;28;20598;-63
2023/07/02 09:24:30;;;;;;;6.85;5.28;;;22.30;57.80;;;;;;5054760;28;20190;-64
2023/07/02 09:26:57;;;;;;;7.45;4.72;;;22.30;58.00;;;;;;5054625;28;20191;-64
2023/07/02 09:29:23;;;;;;;7.38;4.85;;;22.20;58.00;;;;;;5055798;28;20186;-65
2023/07/02 09:31:49;;;;;;;7.40;5.07;;;22.20;57.80;;;;;;5055240;28;20183;-68
2023/07/02 09:34:15;;;;;;;7.35;5.20;;;22.40;57.70;;;;;;5055436;28;20495;-66
2023/07/02 09:36:41;;;;;;;6.38;4.30;;;22.40;57.50;;;;;;5054895;28;20729;-66
2023/07/02 09:39:13;;;;;;;6.70;4.63;;;22.40;57.60;;;;;;5054119;28;20242;-65
2023/07/02 09:41:42;;;;;;;5.80;4.60;;;22.30;57.50;;;;;;5055366;28;20174;-66
2023/07/02 09:44:09;;;;;;;7.30;4.85;;;22.30;57.50;;;;;;5054605;28;20178;-65
2023/07/02 09:46:40;;;;;;;5.70;5.05;;;22.30;57.40;;;;;;5053557;28;20662;-65
2023/07/02 09:49:06;;;;;;;9.90;5.28;;;22.40;58.00;;;;;;5053635;28;20186;-65
2023/07/02 09:51:31;;;;;;;6.40;4.50;;;22.50;57.20;;;;;;5053065;28;20183;-64
2023/07/02 09:53:58;;;;;;;6.22;4.80;;;22.40;57.10;;;;;;5054847;28;20171;-64
2023/07/02 09:56:23;;;;;;;7.13;4.72;;;22.50;56.90;;;;;;5053576;28;20211;-64
2023/07/02 09:58:49;;;;;;;7.45;4.28;;;22.60;56.70;;;;;;5053421;28;20171;-65
2023/07/02 10:01:15;;;;;;;7.40;5.10;;;22.70;56.60;;;;;;5054947;28;20179;-66
2023/07/02 10:03:40;;;;;;;7.40;4.97;;;22.60;56.50;;;;;;5037492;28;20673;-66
2023/07/02 10:06:06;;;;;;;8.32;4.38;;;22.60;56.40;;;;;;5053918;28;20669;-66
2023/07/02 10:08:32;;;;;;;5.57;4.35;;;22.70;56.30;;;;;;5054816;28;20700;-64
2023/07/02 10:11:13;;;;;;;5.28;4.57;;;22.70;56.20;;;;;;5054833;28;20175;-65
2023/07/02 10:13:39;;;;;;;6.97;4.57;;;22.60;56.40;;;;;;5054366;28;20179;-64
2023/07/02 10:16:05;;;;;;;6.55;4.70;;;22.60;56.40;;;;;;5055241;28;20245;-64
2023/07/02 10:18:30;;;;;;;6.28;4.30;;;22.70;56.40;;;;;;5074501;28;20265;-64
2023/07/02 10:20:56;;;;;;;5.28;4.35;;;22.70;56.20;;;;;;5073720;28;20177;-65
2023/07/02 10:23:37;;;;;;;6.45;4.10;;;22.60;56.50;;;;;;5072553;28;20170;-64
2023/07/02 10:26:19;;;;;;;5.22;4.35;;;22.50;56.50;;;;;;5072096;28;20197;-64
2023/07/02 10:28:58;;;;;;;7.13;4.85;;;22.50;56.40;;;;;;5054528;28;20188;-64
2023/07/02 10:31:23;;;;;;;6.47;4.63;;;22.50;56.60;;;;;;5054577;28;20179;-67
2023/07/02 10:33:49;;;;;;;6.10;4.00;;;22.50;56.50;;;;;;5053768;28;20228;-66
2023/07/02 10:36:21;;;;;;;6.70;4.00;;;22.50;56.40;;;;;;5053695;28;20210;-67
2023/07/02 10:38:47;;;;;;;7.13;4.47;;;22.50;56.50;;;;;;5054176;28;20207;-65
2023/07/02 10:41:23;;;;;;;4.28;3.63;;;22.50;56.50;;;;;;5053530;28;20254;-65
2023/07/02 10:43:48;;;;;;;5.60;4.20;;;22.40;56.60;;;;;;5054322;28;20178;-65
2023/07/02 10:46:20;;;;;;;6.60;4.30;;;22.50;56.70;;;;;;5053725;28;20185;-64
2023/07/02 10:48:55;;;;;;;7.57;4.13;;;22.50;56.50;;;;;;5053474;28;20207;-64
2023/07/02 10:51:21;;;;;;;6.93;4.22;;;22.50;56.20;;;;;;5054317;28;20174;-65
2023/07/02 10:53:57;;;;;;;6.18;3.85;;;22.50;57.00;;;;;;5053271;28;20641;-64
2023/07/02 10:56:22;;;;;;;5.70;4.18;;;22.50;56.30;;;;;;5052806;28;20261;-64
2023/07/02 10:58:51;;;;;;;5.43;4.32;;;22.50;56.50;;;;;;5053641;28;20650;-65
2023/07/02 11:01:25;;;;;;;5.95;3.80;;;22.40;56.50;;;;;;5052850;28;20183;-67
2023/07/02 11:04:02;;;;;;;5.75;3.88;;;22.40;56.50;;;;;;5054092;28;20175;-66
2023/07/02 11:06:28;;;;;;;6.03;4.18;;;22.40;56.50;;;;;;5053543;28;20537;-65
2023/07/02 11:08:55;;;;;;;6.63;4.15;;;22.40;56.50;;;;;;5052993;28;20175;-64
2023/07/02 11:11:20;;;;;;;5.50;3.47;;;22.40;56.40;;;;;;5053601;28;20179;-65
2023/07/02 11:13:47;;;;;;;5.90;3.75;;;22.50;56.40;;;;;;5053932;28;20183;-65
2023/07/02 11:16:19;;;;;;;6.03;4.35;;;22.50;56.30;;;;;;5052575;28;20695;-65
2023/07/02 11:18:45;;;;;;;5.30;3.95;;;22.50;56.20;;;;;;5053407;28;20213;-64
2023/07/02 11:21:11;;;;;;;4.32;3.83;;;22.50;56.10;;;;;;5052114;28;20171;-65
2023/07/02 11:23:36;;;;;;;5.35;3.85;;;22.40;56.30;;;;;;5052778;28;20176;-64
2023/07/02 11:26:02;;;;;;;5.53;3.97;;;22.40;56.40;;;;;;5053076;28;20175;-65
2023/07/02 11:28:29;;;;;;;6.10;3.97;;;22.40;56.30;;;;;;5053390;28;20174;-64
2023/07/02 11:30:55;;;;;;;5.03;3.55;;;22.50;56.30;;;;;;5052634;28;20561;-66
2023/07/02 11:33:34;;;;;;;5.43;4.00;;;22.50;56.20;;;;;;5053381;28;20228;-66
2023/07/02 11:35:59;;;;;;;4.40;3.72;;;22.40;56.30;;;;;;5051703;28;20539;-67
2023/07/02 11:38:25;;;;;;;4.25;3.72;;;22.40;56.20;;;;;;5052213;28;20179;-66
2023/07/02 11:40:50;;;;;;;4.90;4.22;;;22.50;56.20;;;;;;5053056;28;20575;-65
2023/07/02 11:43:16;;;;;;;5.80;4.25;;;22.50;56.10;;;;;;5053078;28;20304;-66
2023/07/02 11:45:41;;;;;;;4.38;3.55;;;22.50;56.10;;;;;;5052581;28;20199;-64
2023/07/02 11:48:07;;;;;;;4.97;4.13;;;22.60;55.90;;;;;;5052370;28;20190;-64
2023/07/02 11:50:32;;;;;;;5.47;4.30;;;22.70;55.70;;;;;;5052328;28;20178;-65
2023/07/02 11:52:58;;;;;;;6.80;4.00;;;22.80;55.50;;;;;;5052971;28;20179;-64
2023/07/02 11:55:23;;;;;;;9.35;4.25;;;22.70;55.50;;;;;;5052838;28;20182;-63
2023/07/02 11:57:49;;;;;;;5.18;3.55;;;22.70;55.70;;;;;;5050662;28;20764;-64
2023/07/02 12:00:15;;;;;;;9.80;4.25;;;22.70;55.40;;;;;;5052808;28;20194;-65
2023/07/02 12:02:40;;;;;;;6.95;3.95;;;22.70;55.40;;;;;;5052434;28;20549;-65
2023/07/02 12:05:07;;;;;;;11.93;4.60;;;22.80;55.50;;;;;;5051256;28;20171;-66
2023/07/02 12:07:33;;;;;;;7.75;4.47;;;22.80;55.60;;;;;;5052063;28;20206;-64
2023/07/02 12:09:59;;;;;;;8.40;3.95;;;22.90;55.70;;;;;;5052324;28;20175;-65
2023/07/02 12:12:24;;;;;;;9.18;4.43;;;22.90;56.00;;;;;;5051836;28;20556;-64
2023/07/02 12:14:50;;;;;;;10.10;4.93;;;23.00;56.00;;;;;;5052885;28;20172;-62
2023/07/02 12:17:15;;;;;;;5.68;3.90;;;22.90;56.30;;;;;;5051982;28;20202;-61
2023/07/02 12:19:41;;;;;;;7.43;4.15;;;22.80;56.50;;;;;;5051847;28;20179;-61
2023/07/02 12:22:07;;;;;;;9.43;4.25;;;22.90;56.60;;;;;;5052201;28;20274;-61
2023/07/02 12:24:32;;;;;;;7.70;4.50;;;23.00;56.70;;;;;;5052689;28;20520;-61
2023/07/02 12:26:58;;;;;;;6.00;3.97;;;23.10;56.20;;;;;;5051512;28;22275;-62
2023/07/02 12:29:23;;;;;;;9.48;4.30;;;23.10;56.00;;;;;;5052672;28;20182;-62
2023/07/02 12:31:49;;;;;;;8.43;4.30;;;23.10;56.50;;;;;;5052689;28;20197;-63
2023/07/02 12:34:14;;;;;;;5.25;3.80;;;23.10;56.10;;;;;;5051484;28;20655;-63
2023/07/02 12:36:41;;;;;;;7.15;3.95;;;23.10;56.10;;;;;;5052550;28;20229;-61
2023/07/02 12:39:06;;;;;;;6.32;4.18;;;23.00;56.20;;;;;;5051732;28;20221;-62
2023/07/02 12:41:33;;;;;;;6.32;3.95;;;23.00;56.30;;;;;;5051581;28;20179;-62